Time;durP1;ratioP1;P1;durP2;ratioP2;P2;SDS_P1;SDS_P2;PMS_P1;PMS_P2;Temp;Humidity;BMP_temperature;BMP_pressure;BME280_temperature;BME280_humidity;BME280_pressure;Samples;Min_cycle;Max_cycle;Signal;HPM_P1;HPM_P2
2022/02/06 00:02:15;;;;;;;10.63;6.73;;;;;;;;;;5120949;28;20221;-72
2022/02/06 00:04:46;;;;;;;11.43;7.37;;;;;;;;;;5121131;28;20208;-72
2022/02/06 00:07:14;;;;;;;18.50;7.43;;;;;;;;;;5120558;28;20221;-72
2022/02/06 00:09:43;;;;;;;9.47;6.30;;;;;;;;;;5120963;28;20200;-72
2022/02/06 00:12:31;;;;;;;14.30;6.30;;;;;;;;;;5120688;28;20201;-73
2022/02/06 00:14:59;;;;;;;11.77;6.10;;;;;;;;;;5121154;28;20209;-72
2022/02/06 00:17:30;;;;;;;12.17;6.57;;;;;;;;;;5120157;27;20224;-72
2022/02/06 00:19:58;;;;;;;14.93;6.97;;;;;;;;;;5120905;28;20209;-72
2022/02/06 00:22:31;;;;;;;12.40;6.73;;;;;;;;;;5120258;28;20852;-72
2022/02/06 00:25:14;;;;;;;10.63;5.63;;;;;;;;;;5120356;28;20200;-72
2022/02/06 00:27:54;;;;;;;14.30;7.10;;;;;;;;;;5120138;28;20680;-72
2022/02/06 00:30:28;;;;;;;11.17;6.57;;;;;;;;;;5120903;28;20209;-72
2022/02/06 00:33:02;;;;;;;15.30;6.93;;;;;;;;;;5120241;28;20442;-72
2022/02/06 00:35:48;;;;;;;10.23;6.43;;;;;;;;;;5120439;28;20258;-72
2022/02/06 00:38:26;;;;;;;21.73;10.27;;;;;;;;;;5120110;28;20209;-72
2022/02/06 00:41:12;;;;;;;11.83;7.07;;;;;;;;;;5120603;28;20205;-72
2022/02/06 00:43:40;;;;;;;14.17;8.33;;;;;;;;;;5120173;28;20227;-72
2022/02/06 00:46:09;;;;;;;14.27;7.30;;;;;;;;;;5119590;28;20220;-72
2022/02/06 00:48:39;;;;;;;11.70;6.80;;;;;;;;;;5119917;28;20200;-72
2022/02/06 00:51:12;;;;;;;10.23;7.23;;;;;;;;;;5120009;28;20201;-72
2022/02/06 00:53:41;;;;;;;13.00;7.50;;;;;;;;;;5119728;28;20208;-72
2022/02/06 00:56:09;;;;;;;10.47;7.00;;;;;;;;;;5119541;28;20220;-72
2022/02/06 00:58:37;;;;;;;10.40;6.87;;;;;;;;;;5120278;28;20448;-72
2022/02/06 01:01:05;;;;;;;12.47;7.23;;;;;;;;;;5120067;28;20204;-71
2022/02/06 01:03:33;;;;;;;13.00;6.70;;;;;;;;;;5119474;28;20504;-72
2022/02/06 01:06:04;;;;;;;14.90;8.83;;;;;;;;;;5119505;27;20542;-72
2022/02/06 01:08:33;;;;;;;20.03;8.43;;;;;;;;;;5119710;28;20209;-72
2022/02/06 01:11:06;;;;;;;9.97;6.60;;;;;;;;;;5119682;28;20810;-72
2022/02/06 01:13:42;;;;;;;11.63;7.13;;;;;;;;;;5119805;28;20208;-72
2022/02/06 01:16:16;;;;;;;14.53;7.50;;;;;;;;;;5119648;27;20462;-72
2022/02/06 01:18:51;;;;;;;10.63;6.77;;;;;;;;;;5119407;28;20529;-72
2022/02/06 01:21:30;;;;;;;10.20;7.23;;;;;;;;;;5119497;28;20205;-71
2022/02/06 01:24:03;;;;;;;17.80;7.47;;;;;;;;;;5119578;28;20327;-72
2022/02/06 01:26:37;;;;;;;14.30;8.00;;;;;;;;;;5119185;28;20580;-72
2022/02/06 01:29:13;;;;;;;13.47;7.43;;;;;;;;;;5119481;28;20443;-72
2022/02/06 01:31:51;;;;;;;16.50;8.10;;;;;;;;;;5119225;28;20470;-72
2022/02/06 01:34:23;;;;;;;15.73;7.83;;;;;;;;;;5119569;28;20450;-72
2022/02/06 01:37:05;;;;;;;10.13;6.77;;;;;;;;;;5119321;28;20216;-72
2022/02/06 01:39:53;;;;;;;11.20;6.23;;;;;;;;;;5118839;28;20464;-72
2022/02/06 01:42:28;;;;;;;15.40;7.43;;;;;;;;;;5106791;28;20478;-72
2022/02/06 01:45:11;;;;;;;10.93;6.60;;;;;;;;;;5119148;28;20449;-72
2022/02/06 02:01:40;;;;;;;12.67;6.87;;;;;;;;;;5118426;28;20453;-72
2022/02/06 02:04:14;;;;;;;13.00;7.30;;;;;;;;;;5118806;28;20488;-72
2022/02/06 02:10:09;;;;;;;12.93;6.93;;;;;;;;;;5073314;28;20444;-72
2022/02/06 02:21:27;;;;;;;11.20;5.93;;;;;;;;;;5111305;28;20452;-72
2022/02/06 02:24:17;;;;;;;10.97;6.37;;;;;;;;;;5118126;28;20493;-72
2022/02/06 02:26:57;;;;;;;16.30;7.07;;;;;;;;;;5118301;28;20465;-72
2022/02/06 02:46:25;;;;;;;13.53;6.70;;;;;;;;;;5107655;28;20602;-72
2022/02/06 02:48:55;;;;;;;15.93;7.10;;;;;;;;;;5117575;28;20478;-72
2022/02/06 02:51:25;;;;;;;11.80;6.63;;;;;;;;;;5118466;28;20443;-72
2022/02/06 02:53:58;;;;;;;13.33;6.43;;;;;;;;;;5117377;28;20446;-72
2022/02/06 02:56:38;;;;;;;8.73;6.07;;;;;;;;;;5111598;28;20469;-72
2022/02/06 02:59:13;;;;;;;11.57;6.17;;;;;;;;;;5117873;28;20447;-72
2022/02/06 03:01:48;;;;;;;8.93;5.80;;;;;;;;;;5118228;28;20446;-72
2022/02/06 03:04:16;;;;;;;7.70;5.57;;;;;;;;;;5117454;28;20820;-72
2022/02/06 03:06:44;;;;;;;8.87;6.47;;;;;;;;;;5117775;28;20466;-72
2022/02/06 03:09:14;;;;;;;9.40;5.77;;;;;;;;;;5117600;28;20443;-72
2022/02/06 03:11:42;;;;;;;9.50;5.70;;;;;;;;;;5118013;28;20441;-71
2022/02/06 03:14:14;;;;;;;11.40;5.97;;;;;;;;;;5117883;28;20937;-72
2022/02/06 03:16:49;;;;;;;10.77;5.53;;;;;;;;;;5118089;28;20467;-72
2022/02/06 03:19:19;;;;;;;11.70;6.70;;;;;;;;;;5117684;28;20458;-72
2022/02/06 03:21:47;;;;;;;10.90;5.80;;;;;;;;;;5117451;28;20464;-72
2022/02/06 03:24:22;;;;;;;11.60;6.57;;;;;;;;;;5117226;28;20482;-72
2022/02/06 03:26:51;;;;;;;9.20;6.13;;;;;;;;;;5118816;28;20458;-72
2022/02/06 03:29:19;;;;;;;11.13;6.07;;;;;;;;;;5121855;28;20449;-71
2022/02/06 03:31:48;;;;;;;8.80;5.40;;;;;;;;;;5121562;27;20446;-72
2022/02/06 03:34:16;;;;;;;8.63;5.47;;;;;;;;;;5121419;28;20515;-71
2022/02/06 03:36:46;;;;;;;9.20;5.90;;;;;;;;;;5121703;28;21014;-72
2022/02/06 03:39:15;;;;;;;13.67;5.47;;;;;;;;;;5120883;27;20446;-72
2022/02/06 03:42:07;;;;;;;10.87;6.10;;;;;;;;;;5121491;28;20433;-72
2022/02/06 03:44:41;;;;;;;11.07;6.10;;;;;;;;;;5121186;28;20837;-71
2022/02/06 03:47:14;;;;;;;9.90;5.80;;;;;;;;;;5121409;27;20457;-71
2022/02/06 03:49:54;;;;;;;10.00;6.40;;;;;;;;;;5121490;28;20485;-71
2022/02/06 03:52:26;;;;;;;11.03;5.60;;;;;;;;;;5121838;28;20518;-72
2022/02/06 03:54:54;;;;;;;11.80;6.33;;;;;;;;;;5121113;28;20450;-72
2022/02/06 03:57:24;;;;;;;12.40;6.30;;;;;;;;;;5121331;28;20454;-72
2022/02/06 03:59:52;;;;;;;12.67;6.50;;;;;;;;;;5121101;28;20453;-71
2022/02/06 04:02:20;;;;;;;9.57;5.80;;;;;;;;;;5121416;27;20442;-71
2022/02/06 04:04:48;;;;;;;11.07;6.40;;;;;;;;;;5121228;28;20570;-71
2022/02/06 04:07:16;;;;;;;9.40;5.93;;;;;;;;;;5121264;28;20472;-72
2022/02/06 04:09:48;;;;;;;9.27;5.77;;;;;;;;;;5120492;28;20446;-71
2022/02/06 04:12:18;;;;;;;8.83;6.03;;;;;;;;;;5120898;28;20461;-72
2022/02/06 04:14:55;;;;;;;8.67;5.67;;;;;;;;;;5121161;28;20446;-72
2022/02/06 04:17:26;;;;;;;10.87;6.50;;;;;;;;;;5120941;28;20486;-71
2022/02/06 04:19:54;;;;;;;14.77;5.77;;;;;;;;;;5120754;28;20457;-71
2022/02/06 04:22:22;;;;;;;11.00;6.47;;;;;;;;;;5121069;28;20439;-71
2022/02/06 04:24:51;;;;;;;8.90;6.13;;;;;;;;;;5119870;28;20841;-71
2022/02/06 04:27:19;;;;;;;6.97;5.37;;;;;;;;;;5119257;27;20482;-71
2022/02/06 04:29:51;;;;;;;11.00;6.07;;;;;;;;;;5120769;28;20451;-71
2022/02/06 04:32:18;;;;;;;10.60;5.50;;;;;;;;;;5120477;28;20446;-71
2022/02/06 04:34:47;;;;;;;10.07;6.10;;;;;;;;;;5120814;28;20453;-71
2022/02/06 04:37:22;;;;;;;12.50;6.27;;;;;;;;;;5120255;28;20465;-71
2022/02/06 04:40:12;;;;;;;9.87;6.70;;;;;;;;;;5119600;28;20456;-71
2022/02/06 04:43:01;;;;;;;9.10;6.63;;;;;;;;;;5120484;28;20470;-71
2022/02/06 04:48:39;;;;;;;10.07;7.30;;;;;;;;;;5120336;28;20990;-71
2022/02/06 04:51:54;;;;;;;10.07;8.20;;;;;;;;;;5119796;28;20526;-71
2022/02/06 05:11:28;;;;;;;12.57;7.40;;;;;;;;;;5119759;28;20554;-71
2022/02/06 05:16:59;;;;;;;9.87;6.53;;;;;;;;;;5114724;27;20473;-71
2022/02/06 05:22:54;;;;;;;10.30;6.53;;;;;;;;;;5119598;28;20553;-71
2022/02/06 05:25:39;;;;;;;12.33;6.67;;;;;;;;;;5119478;28;20478;-71
2022/02/06 05:31:04;;;;;;;10.43;5.73;;;;;;;;;;5102443;28;20540;-71
2022/02/06 05:33:31;;;;;;;11.77;6.80;;;;;;;;;;5119392;28;20443;-71
2022/02/06 05:36:02;;;;;;;10.17;6.30;;;;;;;;;;5118892;28;21076;-71
2022/02/06 05:38:30;;;;;;;11.07;6.03;;;;;;;;;;5118876;28;20439;-71
2022/02/06 05:40:58;;;;;;;11.63;5.63;;;;;;;;;;5119211;28;20461;-71
2022/02/06 05:43:26;;;;;;;12.00;5.90;;;;;;;;;;5119397;28;20447;-71
2022/02/06 05:45:54;;;;;;;14.23;6.40;;;;;;;;;;5118784;28;20483;-71
2022/02/06 05:48:22;;;;;;;10.13;6.00;;;;;;;;;;5118720;28;20439;-71
2022/02/06 05:50:50;;;;;;;12.20;6.07;;;;;;;;;;5117418;28;20921;-71
2022/02/06 05:53:20;;;;;;;10.50;6.43;;;;;;;;;;5118599;28;20938;-71
2022/02/06 05:55:48;;;;;;;12.43;6.47;;;;;;;;;;5119008;28;20451;-71
2022/02/06 05:58:15;;;;;;;7.43;5.57;;;;;;;;;;5118982;28;20438;-71
2022/02/06 06:00:43;;;;;;;11.87;5.17;;;;;;;;;;5118286;28;20450;-72
2022/02/06 06:03:11;;;;;;;8.33;4.87;;;;;;;;;;5118515;28;20952;-71
2022/02/06 06:05:39;;;;;;;12.83;5.80;;;;;;;;;;5118562;28;20475;-71
2022/02/06 06:08:07;;;;;;;10.47;5.33;;;;;;;;;;5118650;28;20445;-72
2022/02/06 06:10:38;;;;;;;9.93;5.53;;;;;;;;;;5118256;28;20453;-71
2022/02/06 06:13:06;;;;;;;12.33;6.00;;;;;;;;;;5118779;28;20442;-71
2022/02/06 06:15:33;;;;;;;9.20;5.37;;;;;;;;;;5117968;28;20468;-72
2022/02/06 06:18:04;;;;;;;8.73;5.00;;;;;;;;;;5118784;28;20453;-71
2022/02/06 06:20:34;;;;;;;9.70;5.17;;;;;;;;;;5116470;28;20461;-71
2022/02/06 06:23:02;;;;;;;10.37;5.47;;;;;;;;;;5118576;28;20454;-71
2022/02/06 06:25:36;;;;;;;10.37;5.57;;;;;;;;;;5118425;28;20481;-72
2022/02/06 06:28:05;;;;;;;6.93;5.30;;;;;;;;;;5118832;28;20443;-72
2022/02/06 06:30:35;;;;;;;10.00;5.53;;;;;;;;;;5117916;28;20457;-71
2022/02/06 06:33:03;;;;;;;10.87;5.73;;;;;;;;;;5118185;28;20447;-71
2022/02/06 06:35:52;;;;;;;9.40;4.87;;;;;;;;;;5118435;28;20431;-71
2022/02/06 06:38:20;;;;;;;12.33;5.00;;;;;;;;;;5117446;28;20860;-71
2022/02/06 06:40:48;;;;;;;11.03;4.87;;;;;;;;;;5118306;28;20810;-71
2022/02/06 06:43:18;;;;;;;9.90;6.00;;;;;;;;;;5117641;28;20945;-71
2022/02/06 06:45:46;;;;;;;12.47;5.50;;;;;;;;;;5118076;28;21008;-72
2022/02/06 06:48:14;;;;;;;11.90;5.80;;;;;;;;;;5117763;28;20447;-72
2022/02/06 06:50:42;;;;;;;7.20;5.43;;;;;;;;;;5118481;28;20474;-71
2022/02/06 06:53:11;;;;;;;7.17;4.70;;;;;;;;;;5116973;28;20447;-71
2022/02/06 06:55:43;;;;;;;9.93;4.53;;;;;;;;;;5117910;28;20445;-71
2022/02/06 06:58:15;;;;;;;6.40;5.50;;;;;;;;;;5117596;28;20449;-71
2022/02/06 07:00:55;;;;;;;11.80;5.00;;;;;;;;;;5118320;28;20450;-72
2022/02/06 07:03:24;;;;;;;5.90;4.37;;;;;;;;;;5117456;28;20481;-71
2022/02/06 07:05:52;;;;;;;10.17;4.97;;;;;;;;;;5117870;28;20479;-72
2022/02/06 07:08:20;;;;;;;11.70;5.63;;;;;;;;;;5117512;28;20453;-71
2022/02/06 07:10:48;;;;;;;10.37;4.93;;;;;;;;;;5118183;28;20453;-71
2022/02/06 07:13:17;;;;;;;8.00;4.53;;;;;;;;;;5117774;28;20453;-72
2022/02/06 07:15:46;;;;;;;5.47;4.30;;;;;;;;;;5117958;28;20442;-72
2022/02/06 07:18:14;;;;;;;12.93;4.63;;;;;;;;;;5117619;28;20451;-71
2022/02/06 07:20:42;;;;;;;10.90;4.93;;;;;;;;;;5118233;28;20453;-72
2022/02/06 07:23:10;;;;;;;7.77;3.90;;;;;;;;;;5117346;28;20454;-71
2022/02/06 07:25:41;;;;;;;7.57;4.40;;;;;;;;;;5117680;28;20961;-72
2022/02/06 07:28:15;;;;;;;11.67;5.80;;;;;;;;;;5117252;28;20891;-71
2022/02/06 07:30:44;;;;;;;9.57;4.37;;;;;;;;;;5117229;28;20450;-72
2022/02/06 07:33:14;;;;;;;11.30;6.57;;;;;;;;;;5117490;28;20451;-72
2022/02/06 07:35:42;;;;;;;6.97;4.20;;;;;;;;;;5117538;28;20810;-71
2022/02/06 07:38:14;;;;;;;12.40;5.20;;;;;;;;;;5117176;28;20449;-72
2022/02/06 07:40:42;;;;;;;7.13;4.97;;;;;;;;;;5117455;28;20530;-72
2022/02/06 07:43:10;;;;;;;6.47;4.13;;;;;;;;;;5117946;28;20442;-72
2022/02/06 07:45:39;;;;;;;5.77;4.03;;;;;;;;;;5103728;28;20532;-72
2022/02/06 07:48:09;;;;;;;9.17;4.80;;;;;;;;;;5117729;28;20488;-71
2022/02/06 07:50:38;;;;;;;6.97;4.17;;;;;;;;;;5117099;28;20482;-71
2022/02/06 07:53:06;;;;;;;6.63;4.07;;;;;;;;;;5117056;28;20466;-71
2022/02/06 07:55:34;;;;;;;8.60;4.00;;;;;;;;;;5116995;28;20442;-71
2022/02/06 07:58:02;;;;;;;11.67;5.83;;;;;;;;;;5117882;28;20443;-72
2022/02/06 08:00:30;;;;;;;6.23;4.50;;;;;;;;;;5117308;28;20457;-71
2022/02/06 08:02:58;;;;;;;9.43;4.37;;;;;;;;;;5117093;28;20446;-72
2022/02/06 08:05:27;;;;;;;10.93;4.50;;;;;;;;;;5117606;28;20475;-71
2022/02/06 08:07:58;;;;;;;9.33;4.30;;;;;;;;;;5116935;28;20464;-72
2022/02/06 08:10:27;;;;;;;5.50;3.97;;;;;;;;;;5117570;28;20442;-72
2022/02/06 08:13:05;;;;;;;10.40;5.63;;;;;;;;;;5117377;28;20452;-72
2022/02/06 08:15:33;;;;;;;8.63;4.90;;;;;;;;;;5121224;28;20445;-71
2022/02/06 08:18:01;;;;;;;7.10;5.57;;;;;;;;;;5120821;28;20458;-71
2022/02/06 08:20:29;;;;;;;7.80;5.10;;;;;;;;;;5110638;28;20526;-71
2022/02/06 08:22:59;;;;;;;10.60;5.43;;;;;;;;;;5120214;28;20450;-72
2022/02/06 08:25:28;;;;;;;9.80;4.40;;;;;;;;;;5120966;28;20474;-72
2022/02/06 08:27:56;;;;;;;6.37;3.80;;;;;;;;;;5120347;28;20981;-72
2022/02/06 08:30:24;;;;;;;6.13;3.57;;;;;;;;;;5120930;28;20447;-72
2022/02/06 08:32:53;;;;;;;6.80;4.37;;;;;;;;;;5119998;28;20495;-71
2022/02/06 08:35:22;;;;;;;11.03;4.83;;;;;;;;;;5120416;28;20442;-71
2022/02/06 08:37:51;;;;;;;6.30;4.30;;;;;;;;;;5118948;28;20463;-72
2022/02/06 08:40:20;;;;;;;8.60;4.40;;;;;;;;;;5119880;28;20495;-72
2022/02/06 08:42:48;;;;;;;4.13;3.40;;;;;;;;;;5119512;28;20449;-72
2022/02/06 08:45:17;;;;;;;7.03;3.70;;;;;;;;;;5106167;28;20465;-71
2022/02/06 08:47:46;;;;;;;14.03;4.77;;;;;;;;;;5120443;28;20465;-71
2022/02/06 08:50:14;;;;;;;7.03;4.53;;;;;;;;;;5119751;27;20482;-71
2022/02/06 08:52:42;;;;;;;7.53;4.33;;;;;;;;;;5120390;28;20445;-71
2022/02/06 08:55:12;;;;;;;6.40;3.60;;;;;;;;;;5119481;28;20451;-71
2022/02/06 08:57:45;;;;;;;6.30;3.70;;;;;;;;;;5120211;28;20447;-71
2022/02/06 09:00:14;;;;;;;10.70;3.77;;;;;;;;;;5120127;28;20443;-72
2022/02/06 09:02:42;;;;;;;4.40;3.30;;;;;;;;;;5120129;28;20457;-72
2022/02/06 09:05:11;;;;;;;11.57;4.73;;;;;;;;;;5119742;28;20872;-72
2022/02/06 09:07:40;;;;;;;8.97;4.33;;;;;;;;;;5119479;28;20493;-72
2022/02/06 09:10:09;;;;;;;9.90;5.73;;;;;;;;;;5119863;28;20870;-72
2022/02/06 09:12:42;;;;;;;8.63;4.73;;;;;;;;;;5119571;28;20451;-71
2022/02/06 09:15:14;;;;;;;8.53;4.23;;;;;;;;;;5119971;28;20443;-71
2022/02/06 09:17:42;;;;;;;13.40;4.50;;;;;;;;;;5119071;28;20467;-72
2022/02/06 09:20:11;;;;;;;7.27;4.90;;;;;;;;;;5116738;28;20455;-71
2022/02/06 09:22:40;;;;;;;8.70;4.20;;;;;;;;;;5119598;28;20447;-72
2022/02/06 09:25:09;;;;;;;12.77;4.90;;;;;;;;;;5120112;28;20450;-72
2022/02/06 09:27:37;;;;;;;8.10;4.50;;;;;;;;;;5119680;28;20973;-72
2022/02/06 09:30:06;;;;;;;8.40;5.20;;;;;;;;;;5120430;28;20442;-72
2022/02/06 09:37:32;;;;;;;6.93;5.13;;;;;;;;;;5119419;28;20466;-72
2022/02/06 09:40:00;;;;;;;10.50;5.40;;;;;;;;;;5119293;28;20205;-71
2022/02/06 09:42:29;;;;;;;7.50;4.73;;;;;;;;;;5119277;28;20447;-72
2022/02/06 09:44:58;;;;;;;10.50;4.47;;;;;;;;;;5119078;28;20443;-72
2022/02/06 09:47:28;;;;;;;8.67;4.90;;;;;;;;;;5118930;28;20482;-72
2022/02/06 09:49:57;;;;;;;6.73;4.33;;;;;;;;;;5119001;28;20561;-71
2022/02/06 09:52:26;;;;;;;9.33;4.70;;;;;;;;;;5118185;28;20207;-71
2022/02/06 09:54:55;;;;;;;10.93;5.13;;;;;;;;;;5119336;28;20280;-72
2022/02/06 09:57:27;;;;;;;8.40;4.97;;;;;;;;;;5119047;28;20473;-72
2022/02/06 09:59:56;;;;;;;8.43;4.40;;;;;;;;;;5119455;28;20208;-72
2022/02/06 10:02:26;;;;;;;8.37;4.77;;;;;;;;;;5118260;28;20447;-72
2022/02/06 10:04:54;;;;;;;9.30;4.87;;;;;;;;;;5119856;28;20435;-72
2022/02/06 10:07:28;;;;;;;6.63;4.73;;;;;;;;;;5117467;28;20227;-72
2022/02/06 10:09:58;;;;;;;11.10;4.73;;;;;;;;;;5118778;28;20204;-72
2022/02/06 10:12:28;;;;;;;11.77;4.90;;;;;;;;;;5118466;27;20193;-72
2022/02/06 10:14:56;;;;;;;10.30;5.63;;;;;;;;;;5118653;28;20205;-72
2022/02/06 10:17:24;;;;;;;12.53;5.33;;;;;;;;;;5118376;28;20973;-72
2022/02/06 10:19:53;;;;;;;12.43;5.50;;;;;;;;;;5116661;28;20201;-72
2022/02/06 10:22:23;;;;;;;10.83;5.20;;;;;;;;;;5104609;28;20547;-72
2022/02/06 10:25:03;;;;;;;9.27;3.60;;;;;;;;;;5118507;28;20227;-72
2022/02/06 10:27:47;;;;;;;4.50;3.33;;;;;;;;;;5118029;28;20220;-72
2022/02/06 10:30:20;;;;;;;5.67;3.63;;;;;;;;;;5118512;28;20209;-72
2022/02/06 10:32:48;;;;;;;9.40;3.77;;;;;;;;;;5118261;28;20205;-72
2022/02/06 10:35:16;;;;;;;8.03;3.30;;;;;;;;;;5118273;28;20580;-72
2022/02/06 10:37:44;;;;;;;5.70;3.27;;;;;;;;;;5116984;28;20705;-72
2022/02/06 10:40:17;;;;;;;3.63;2.90;;;;;;;;;;5117928;28;20548;-72
2022/02/06 10:42:45;;;;;;;5.07;2.80;;;;;;;;;;5117929;28;20201;-72
2022/02/06 10:45:17;;;;;;;5.47;3.23;;;;;;;;;;5118098;28;20208;-72
2022/02/06 10:47:45;;;;;;;8.03;2.90;;;;;;;;;;5117863;28;20688;-72
2022/02/06 10:50:14;;;;;;;7.53;4.17;;;;;;;;;;5117999;28;20236;-72
2022/02/06 10:52:43;;;;;;;7.60;3.97;;;;;;;;;;5118047;28;20197;-72
2022/02/06 10:55:14;;;;;;;9.27;4.13;;;;;;;;;;5118756;28;20204;-72
2022/02/06 10:57:56;;;;;;;12.63;4.40;;;;;;;;;;5118164;28;20707;-71
2022/02/06 11:00:28;;;;;;;5.13;3.50;;;;;;;;;;5118887;28;20211;-72
2022/02/06 11:03:03;;;;;;;8.30;3.80;;;;;;;;;;5118294;28;20211;-72
2022/02/06 11:05:46;;;;;;;3.77;3.30;;;;;;;;;;5118684;28;20207;-72
2022/02/06 11:08:23;;;;;;;9.17;3.47;;;;;;;;;;5106949;28;20307;-72
2022/02/06 11:10:55;;;;;;;11.03;3.60;;;;;;;;;;5116291;28;20215;-72
2022/02/06 11:13:25;;;;;;;4.53;3.10;;;;;;;;;;5118379;28;20562;-72
2022/02/06 11:15:53;;;;;;;5.57;3.03;;;;;;;;;;5118515;28;20268;-72
2022/02/06 11:18:23;;;;;;;4.00;2.63;;;;;;;;;;5118377;28;20197;-73
2022/02/06 11:20:55;;;;;;;5.33;2.40;;;;;;;;;;5118804;28;20269;-72
2022/02/06 11:23:23;;;;;;;4.17;2.70;;;;;;;;;;5118394;28;20663;-72
2022/02/06 11:25:52;;;;;;;4.87;2.67;;;;;;;;;;5118874;28;20634;-72
2022/02/06 11:28:20;;;;;;;2.80;2.30;;;;;;;;;;5118381;28;20223;-72
2022/02/06 11:30:50;;;;;;;8.83;2.47;;;;;;;;;;5119121;28;20209;-72
2022/02/06 11:33:18;;;;;;;6.77;2.67;;;;;;;;;;5118569;28;20203;-72
2022/02/06 11:35:55;;;;;;;3.33;1.97;;;;;;;;;;5118936;28;20216;-72
2022/02/06 11:44:31;;;;;;;4.73;2.77;;;;;;;;;;5117921;28;20450;-72
2022/02/06 11:47:05;;;;;;;4.57;2.87;;;;;;;;;;5118348;28;20462;-72
2022/02/06 11:49:36;;;;;;;5.53;2.20;;;;;;;;;;5107107;28;20236;-72
2022/02/06 11:52:04;;;;;;;4.73;2.23;;;;;;;;;;5122158;28;20209;-71
2022/02/06 11:54:33;;;;;;;5.33;2.40;;;;;;;;;;5109916;28;20446;-72
2022/02/06 11:57:19;;;;;;;7.73;2.47;;;;;;;;;;5118701;28;20244;-72
2022/02/06 12:00:05;;;;;;;6.77;3.40;;;;;;;;;;5122102;28;20205;-71
2022/02/06 12:02:35;;;;;;;3.40;2.67;;;;;;;;;;5114556;27;20236;-72
2022/02/06 12:05:13;;;;;;;2.43;1.83;;;;;;;;;;5121794;28;20205;-72
2022/02/06 12:07:59;;;;;;;4.17;2.03;;;;;;;;;;5120812;28;20224;-71
2022/02/06 12:10:44;;;;;;;7.70;2.17;;;;;;;;;;5121132;28;20644;-73
2022/02/06 12:13:27;;;;;;;2.60;1.80;;;;;;;;;;5120807;28;20704;-72
2022/02/06 12:15:57;;;;;;;3.13;2.20;;;;;;;;;;5119805;28;20227;-72
2022/02/06 12:18:27;;;;;;;3.77;1.67;;;;;;;;;;5121145;28;20266;-71
2022/02/06 12:20:56;;;;;;;3.73;2.10;;;;;;;;;;5121287;28;20219;-73
2022/02/06 12:23:38;;;;;;;6.50;2.30;;;;;;;;;;5120390;28;20307;-72
2022/02/06 12:26:21;;;;;;;3.53;1.83;;;;;;;;;;5121261;28;20225;-71
2022/02/06 12:28:50;;;;;;;3.63;1.83;;;;;;;;;;5120607;28;20221;-73
2022/02/06 12:31:29;;;;;;;4.40;1.93;;;;;;;;;;5121042;28;20194;-73
2022/02/06 12:34:10;;;;;;;2.93;1.63;;;;;;;;;;5120816;28;20281;-71
2022/02/06 12:37:07;;;;;;;5.60;2.30;;;;;;;;;;5121152;28;20232;-72
2022/02/06 12:39:37;;;;;;;3.70;2.20;;;;;;;;;;5120759;28;20627;-72
2022/02/06 12:42:08;;;;;;;2.60;1.63;;;;;;;;;;5121212;28;20219;-72
2022/02/06 12:44:37;;;;;;;3.63;1.83;;;;;;;;;;5121276;27;20197;-72
2022/02/06 12:47:12;;;;;;;4.27;2.03;;;;;;;;;;5122454;28;20258;-72
2022/02/06 12:49:42;;;;;;;6.90;2.70;;;;;;;;;;5121423;28;20263;-72
2022/02/06 12:52:10;;;;;;;3.07;2.37;;;;;;;;;;5121664;28;20204;-72
2022/02/06 12:54:38;;;;;;;7.00;2.20;;;;;;;;;;5121457;28;20197;-71
2022/02/06 12:57:06;;;;;;;2.77;2.03;;;;;;;;;;5120729;28;20221;-71
2022/02/06 12:59:34;;;;;;;2.43;1.40;;;;;;;;;;5120071;28;20289;-71
2022/02/06 13:02:02;;;;;;;1.80;1.67;;;;;;;;;;5120145;28;20701;-72
2022/02/06 13:04:32;;;;;;;5.60;1.40;;;;;;;;;;5120055;28;20208;-71
2022/02/06 13:07:03;;;;;;;4.33;1.70;;;;;;;;;;5119964;28;20232;-72
2022/02/06 13:09:40;;;;;;;3.07;1.57;;;;;;;;;;5119731;28;20227;-72
2022/02/06 13:12:15;;;;;;;2.20;1.93;;;;;;;;;;5107596;28;20205;-72
2022/02/06 13:14:56;;;;;;;5.13;2.13;;;;;;;;;;5119827;28;20205;-72
2022/02/06 13:17:38;;;;;;;2.07;1.80;;;;;;;;;;5119634;28;20312;-72
2022/02/06 13:20:17;;;;;;;4.00;1.87;;;;;;;;;;5119670;27;20197;-72
2022/02/06 13:22:55;;;;;;;3.67;1.80;;;;;;;;;;5119374;28;20237;-72
2022/02/06 13:25:45;;;;;;;3.13;2.00;;;;;;;;;;5119686;28;20201;-72
2022/02/06 13:28:27;;;;;;;2.30;1.60;;;;;;;;;;5119807;28;20232;-72
2022/02/06 13:31:19;;;;;;;3.87;2.10;;;;;;;;;;5119275;28;20780;-72
2022/02/06 13:33:56;;;;;;;5.17;2.33;;;;;;;;;;5119681;28;20219;-72
2022/02/06 13:36:35;;;;;;;2.03;1.70;;;;;;;;;;5119317;28;20226;-72
2022/02/06 13:39:09;;;;;;;4.97;2.13;;;;;;;;;;5118700;28;20203;-73
2022/02/06 13:41:37;;;;;;;3.27;1.90;;;;;;;;;;5119061;28;20678;-72
2022/02/06 13:44:13;;;;;;;3.70;2.33;;;;;;;;;;5119429;28;20540;-72
2022/02/06 13:46:42;;;;;;;3.30;2.13;;;;;;;;;;5118722;28;20626;-72
2022/02/06 13:49:10;;;;;;;5.73;1.83;;;;;;;;;;5118812;28;20237;-72
2022/02/06 13:51:43;;;;;;;3.17;2.30;;;;;;;;;;5118927;28;20204;-72
2022/02/06 13:54:16;;;;;;;4.30;2.30;;;;;;;;;;5119003;28;20200;-72
2022/02/06 13:56:46;;;;;;;2.70;1.80;;;;;;;;;;5118460;28;20758;-72
2022/02/06 13:59:18;;;;;;;4.73;1.83;;;;;;;;;;5118876;28;20193;-72
2022/02/06 14:01:51;;;;;;;3.67;1.90;;;;;;;;;;5119242;28;20216;-72
2022/02/06 14:04:20;;;;;;;3.27;2.27;;;;;;;;;;5118673;28;20201;-72
2022/02/06 14:06:54;;;;;;;3.53;2.47;;;;;;;;;;5119156;28;20224;-72
2022/02/06 14:09:29;;;;;;;3.97;2.37;;;;;;;;;;5117986;27;20224;-72
2022/02/06 14:12:01;;;;;;;7.20;2.97;;;;;;;;;;5118189;28;20285;-72
2022/02/06 14:14:30;;;;;;;3.67;1.97;;;;;;;;;;5118745;28;20197;-72
2022/02/06 14:17:19;;;;;;;2.93;2.13;;;;;;;;;;5118854;28;20229;-72
2022/02/06 14:19:48;;;;;;;2.93;1.90;;;;;;;;;;5118347;28;20197;-72
2022/02/06 14:22:26;;;;;;;4.07;1.87;;;;;;;;;;5118645;28;20204;-72
2022/02/06 14:24:57;;;;;;;4.10;2.37;;;;;;;;;;5118498;28;20201;-72
2022/02/06 14:27:35;;;;;;;2.33;1.77;;;;;;;;;;5118628;28;20231;-72
2022/02/06 14:30:09;;;;;;;3.73;1.77;;;;;;;;;;5118078;28;20225;-72
2022/02/06 14:32:38;;;;;;;5.37;3.00;;;;;;;;;;5118276;28;20197;-72
2022/02/06 14:35:11;;;;;;;7.27;2.30;;;;;;;;;;5118566;28;20211;-72
2022/02/06 14:37:43;;;;;;;7.30;2.60;;;;;;;;;;5118051;28;20228;-72
2022/02/06 14:40:20;;;;;;;6.53;3.03;;;;;;;;;;5118478;28;20208;-72
2022/02/06 14:42:49;;;;;;;19.33;7.43;;;;;;;;;;5118511;28;20201;-72
2022/02/06 14:45:17;;;;;;;10.47;5.70;;;;;;;;;;5119069;28;20237;-73
2022/02/06 14:47:45;;;;;;;8.93;5.57;;;;;;;;;;5117901;28;20223;-72
2022/02/06 14:50:14;;;;;;;3.13;2.83;;;;;;;;;;5117266;28;20225;-72
2022/02/06 14:52:43;;;;;;;3.73;2.33;;;;;;;;;;5117416;28;20232;-72
2022/02/06 14:55:11;;;;;;;4.27;2.50;;;;;;;;;;5118397;28;20205;-72
2022/02/06 14:57:41;;;;;;;4.40;2.27;;;;;;;;;;5118211;28;20223;-72
2022/02/06 15:00:10;;;;;;;7.53;3.43;;;;;;;;;;5117895;28;20197;-72
2022/02/06 15:02:38;;;;;;;4.93;2.47;;;;;;;;;;5118092;28;20211;-72
2022/02/06 15:05:06;;;;;;;2.43;2.00;;;;;;;;;;5117739;28;20645;-72
2022/02/06 15:07:34;;;;;;;4.23;3.70;;;;;;;;;;5117771;28;20224;-73
2022/02/06 15:10:02;;;;;;;7.17;3.30;;;;;;;;;;5118007;28;20224;-72
2022/02/06 15:12:30;;;;;;;5.63;3.57;;;;;;;;;;5118513;28;20273;-71
2022/02/06 15:15:00;;;;;;;5.03;3.63;;;;;;;;;;5118777;28;20211;-73
2022/02/06 15:17:29;;;;;;;11.67;6.80;;;;;;;;;;5118414;28;20280;-71
2022/02/06 15:19:57;;;;;;;8.40;6.37;;;;;;;;;;5117185;28;20201;-72
2022/02/06 15:22:25;;;;;;;9.83;8.90;;;;;;;;;;5117857;28;20580;-73
2022/02/06 15:24:53;;;;;;;9.27;8.37;;;;;;;;;;5121824;28;20201;-71
2022/02/06 15:27:21;;;;;;;9.97;9.17;;;;;;;;;;5121702;28;20231;-71
2022/02/06 15:29:49;;;;;;;11.20;10.10;;;;;;;;;;5121339;28;20221;-72
2022/02/06 15:32:20;;;;;;;4.00;3.43;;;;;;;;;;5121874;28;20214;-72
2022/02/06 15:34:48;;;;;;;4.43;3.20;;;;;;;;;;5121739;28;20212;-72
2022/02/06 15:37:17;;;;;;;4.97;2.33;;;;;;;;;;5121617;28;20231;-72
2022/02/06 15:39:46;;;;;;;4.27;2.17;;;;;;;;;;5121312;28;20570;-72
2022/02/06 15:42:16;;;;;;;4.40;2.10;;;;;;;;;;5121637;28;20570;-72
2022/02/06 15:44:45;;;;;;;6.00;2.50;;;;;;;;;;5121475;28;20211;-71
2022/02/06 15:47:14;;;;;;;5.47;2.93;;;;;;;;;;5121736;28;20679;-72
2022/02/06 15:49:43;;;;;;;5.03;2.70;;;;;;;;;;5121207;28;20232;-72
2022/02/06 15:52:12;;;;;;;3.57;2.20;;;;;;;;;;5121267;28;20219;-72
2022/02/06 15:54:40;;;;;;;5.03;2.70;;;;;;;;;;5121490;28;20209;-73
2022/02/06 15:57:08;;;;;;;3.87;2.40;;;;;;;;;;5121356;28;20316;-72
2022/02/06 15:59:36;;;;;;;4.73;2.47;;;;;;;;;;5121259;28;20203;-71
2022/02/06 16:02:04;;;;;;;4.73;2.50;;;;;;;;;;5121600;28;20211;-72
2022/02/06 16:04:32;;;;;;;5.53;2.67;;;;;;;;;;5121083;28;20668;-72
2022/02/06 16:07:02;;;;;;;8.93;2.93;;;;;;;;;;5120833;28;20590;-72
2022/02/06 16:09:30;;;;;;;6.47;3.27;;;;;;;;;;5120822;28;20232;-72
2022/02/06 16:11:58;;;;;;;8.83;3.77;;;;;;;;;;5121029;28;20227;-72
2022/02/06 16:14:26;;;;;;;6.80;3.63;;;;;;;;;;5120678;28;20830;-72
2022/02/06 16:16:54;;;;;;;11.13;4.13;;;;;;;;;;5121439;28;20225;-72
2022/02/06 16:19:22;;;;;;;7.43;3.60;;;;;;;;;;5113085;28;20207;-72
2022/02/06 16:21:50;;;;;;;3.50;2.37;;;;;;;;;;5120928;28;20205;-72
2022/02/06 16:24:20;;;;;;;4.90;2.67;;;;;;;;;;5121016;27;20204;-72
2022/02/06 16:26:50;;;;;;;4.33;3.33;;;;;;;;;;5121247;28;20225;-72
2022/02/06 16:29:18;;;;;;;6.53;3.40;;;;;;;;;;5120955;28;20236;-72